sensor_id;sensor_type;location;lat;lon;timestamp;pressure;altitude;pressure_sealevel;temperature;humidity
77149;BME280;66122;47.130;16.844;2023-10-19T00:06:42;98864.28;;;9.80;100.00
77149;BME280;66122;47.130;16.844;2023-10-19T00:16:47;98814.44;;;9.74;100.00
77149;BME280;66122;47.130;16.844;2023-10-19T00:26:55;98845.41;;;10.26;100.00
77149;BME280;66122;47.130;16.844;2023-10-19T00:36:58;98847.00;;;10.28;100.00
77149;BME280;66122;47.130;16.844;2023-10-19T00:47:10;98804.03;;;10.10;100.00
77149;BME280;66122;47.130;16.844;2023-10-19T00:57:16;98760.31;;;9.92;100.00
77149;BME280;66122;47.130;16.844;2023-10-19T01:07:23;98784.31;;;10.02;100.00
77149;BME280;66122;47.130;16.844;2023-10-19T01:17:29;98755.94;;;9.78;100.00
77149;BME280;66122;47.130;16.844;2023-10-19T01:27:33;98719.91;;;9.63;100.00
77149;BME280;66122;47.130;16.844;2023-10-19T01:37:36;98691.09;;;9.46;100.00
77149;BME280;66122;47.130;16.844;2023-10-19T01:47:40;98679.19;;;9.26;100.00
77149;BME280;66122;47.130;16.844;2023-10-19T01:57:45;98679.00;;;9.02;100.00
77149;BME280;66122;47.130;16.844;2023-10-19T02:07:47;98704.53;;;9.16;100.00
77149;BME280;66122;47.130;16.844;2023-10-19T02:17:50;98688.66;;;9.16;100.00
77149;BME280;66122;47.130;16.844;2023-10-19T02:27:53;98681.09;;;8.71;100.00
77149;BME280;66122;47.130;16.844;2023-10-19T02:37:56;98658.81;;;9.01;100.00
77149;BME280;66122;47.130;16.844;2023-10-19T02:47:58;98630.97;;;9.23;100.00
77149;BME280;66122;47.130;16.844;2023-10-19T02:58:02;98608.25;;;9.46;100.00
77149;BME280;66122;47.130;16.844;2023-10-19T03:08:07;98576.00;;;9.40;100.00
77149;BME280;66122;47.130;16.844;2023-10-19T03:18:10;98548.72;;;9.40;100.00
77149;BME280;66122;47.130;16.844;2023-10-19T03:28:14;98604.28;;;9.78;100.00
77149;BME280;66122;47.130;16.844;2023-10-19T03:38:19;98575.28;;;9.64;100.00
77149;BME280;66122;47.130;16.844;2023-10-19T03:48:25;98537.50;;;9.36;100.00
77149;BME280;66122;47.130;16.844;2023-10-19T03:58:37;98546.41;;;9.35;100.00
77149;BME280;66122;47.130;16.844;2023-10-19T04:08:43;98525.44;;;9.20;100.00
77149;BME280;66122;47.130;16.844;2023-10-19T04:18:52;98538.44;;;9.23;100.00
77149;BME280;66122;47.130;16.844;2023-10-19T04:28:56;98557.19;;;9.32;100.00
77149;BME280;66122;47.130;16.844;2023-10-19T04:39:00;98479.69;;;9.07;100.00
77149;BME280;66122;47.130;16.844;2023-10-19T04:49:03;98491.28;;;9.29;100.00
77149;BME280;66122;47.130;16.844;2023-10-19T04:59:08;98461.78;;;9.10;100.00
77149;BME280;66122;47.130;16.844;2023-10-19T05:09:11;98482.75;;;9.13;100.00
77149;BME280;66122;47.130;16.844;2023-10-19T05:19:14;98500.38;;;9.25;100.00
77149;BME280;66122;47.130;16.844;2023-10-19T05:29:17;98471.53;;;9.10;100.00
77149;BME280;66122;47.130;16.844;2023-10-19T05:39:21;98488.25;;;9.35;100.00
77149;BME280;66122;47.130;16.844;2023-10-19T05:49:32;98480.50;;;9.58;100.00
77149;BME280;66122;47.130;16.844;2023-10-19T05:59:35;98457.53;;;9.46;100.00
77149;BME280;66122;47.130;16.844;2023-10-19T06:09:39;98496.38;;;9.94;100.00
77149;BME280;66122;47.130;16.844;2023-10-19T06:19:42;98464.91;;;10.39;100.00
77149;BME280;66122;47.130;16.844;2023-10-19T06:29:45;98414.66;;;10.50;100.00
77149;BME280;66122;47.130;16.844;2023-10-19T06:39:49;98436.97;;;11.16;100.00
77149;BME280;66122;47.130;16.844;2023-10-19T06:50:00;98407.91;;;11.37;100.00
77149;BME280;66122;47.130;16.844;2023-10-19T07:00:06;98389.56;;;11.56;100.00
77149;BME280;66122;47.130;16.844;2023-10-19T07:10:20;98410.63;;;11.91;100.00
77149;BME280;66122;47.130;16.844;2023-10-19T07:20:24;98385.22;;;12.20;100.00
77149;BME280;66122;47.130;16.844;2023-10-19T07:30:42;98411.81;;;12.62;100.00
77149;BME280;66122;47.130;16.844;2023-10-19T07:40:46;98369.28;;;13.03;100.00
77149;BME280;66122;47.130;16.844;2023-10-19T07:50:49;98391.72;;;13.90;100.00
77149;BME280;66122;47.130;16.844;2023-10-19T08:01:06;98400.81;;;14.76;96.71
77149;BME280;66122;47.130;16.844;2023-10-19T08:11:14;98356.56;;;14.83;97.00
77149;BME280;66122;47.130;16.844;2023-10-19T08:21:20;98387.38;;;15.51;93.92
77149;BME280;66122;47.130;16.844;2023-10-19T08:31:24;98348.59;;;16.20;90.89
77149;BME280;66122;47.130;16.844;2023-10-19T08:41:27;98357.41;;;16.91;88.38
77149;BME280;66122;47.130;16.844;2023-10-19T08:51:33;98304.91;;;16.98;87.05
77149;BME280;66122;47.130;16.844;2023-10-19T09:01:38;98341.84;;;18.05;83.96
77149;BME280;66122;47.130;16.844;2023-10-19T09:11:40;98313.22;;;18.94;79.97
77149;BME280;66122;47.130;16.844;2023-10-19T09:21:44;98302.06;;;19.61;78.15
77149;BME280;66122;47.130;16.844;2023-10-19T09:31:48;98286.66;;;20.08;76.44
77149;BME280;66122;47.130;16.844;2023-10-19T09:41:52;98273.56;;;20.05;76.62
77149;BME280;66122;47.130;16.844;2023-10-19T09:51:55;98261.47;;;20.99;74.34
77149;BME280;66122;47.130;16.844;2023-10-19T10:02:12;98256.34;;;22.48;68.86
77149;BME280;66122;47.130;16.844;2023-10-19T10:12:23;98237.91;;;22.51;68.31
77149;BME280;66122;47.130;16.844;2023-10-19T10:22:30;98234.44;;;21.72;70.29
77149;BME280;66122;47.130;16.844;2023-10-19T10:32:49;98210.34;;;21.71;71.89
77149;BME280;66122;47.130;16.844;2023-10-19T10:43:05;98204.81;;;21.58;71.65
77149;BME280;66122;47.130;16.844;2023-10-19T10:53:13;98184.75;;;21.60;70.67
77149;BME280;66122;47.130;16.844;2023-10-19T11:03:20;98182.50;;;23.98;61.89
77149;BME280;66122;47.130;16.844;2023-10-19T11:13:27;98162.31;;;22.86;65.15
77149;BME280;66122;47.130;16.844;2023-10-19T11:23:46;98164.84;;;21.83;71.14
77149;BME280;66122;47.130;16.844;2023-10-19T11:33:54;98151.63;;;20.65;75.05
77149;BME280;66122;47.130;16.844;2023-10-19T11:44:03;98123.44;;;20.82;75.40
77149;BME280;66122;47.130;16.844;2023-10-19T11:54:08;98138.16;;;20.65;76.97
77149;BME280;66122;47.130;16.844;2023-10-19T12:04:11;98124.69;;;20.50;77.70
77149;BME280;66122;47.130;16.844;2023-10-19T12:14:14;98127.47;;;20.57;77.79
77149;BME280;66122;47.130;16.844;2023-10-19T12:24:17;98125.13;;;20.69;77.93
77149;BME280;66122;47.130;16.844;2023-10-19T12:34:20;98103.91;;;20.44;79.58
77149;BME280;66122;47.130;16.844;2023-10-19T12:44:26;98108.41;;;20.14;80.66
77149;BME280;66122;47.130;16.844;2023-10-19T12:54:36;98111.78;;;21.26;76.15
77149;BME280;66122;47.130;16.844;2023-10-19T13:04:39;98093.16;;;23.79;63.76
77149;BME280;66122;47.130;16.844;2023-10-19T13:14:43;98075.84;;;21.04;74.62
77149;BME280;66122;47.130;16.844;2023-10-19T13:24:46;98063.88;;;20.26;79.35
77149;BME280;66122;47.130;16.844;2023-10-19T13:34:49;98031.47;;;19.76;82.76
77149;BME280;66122;47.130;16.844;2023-10-19T13:44:53;98043.91;;;19.92;82.96
77149;BME280;66122;47.130;16.844;2023-10-19T13:54:56;98040.22;;;20.22;82.24
77149;BME280;66122;47.130;16.844;2023-10-19T14:04:58;98031.75;;;20.10;81.97
77149;BME280;66122;47.130;16.844;2023-10-19T14:15:03;98000.41;;;19.59;84.36
77149;BME280;66122;47.130;16.844;2023-10-19T14:25:08;98027.78;;;19.31;87.55
77149;BME280;66122;47.130;16.844;2023-10-19T14:35:19;98009.38;;;19.05;88.31
77149;BME280;66122;47.130;16.844;2023-10-19T14:45:25;97982.19;;;19.08;88.16
77149;BME280;66122;47.130;16.844;2023-10-19T14:55:28;97972.03;;;18.96;88.47
77149;BME280;66122;47.130;16.844;2023-10-19T15:05:34;97945.59;;;18.85;88.28
77149;BME280;66122;47.130;16.844;2023-10-19T15:15:46;97944.28;;;18.81;88.37
77149;BME280;66122;47.130;16.844;2023-10-19T15:25:53;97945.94;;;19.04;87.33
77149;BME280;66122;47.130;16.844;2023-10-19T15:35:56;97950.06;;;19.15;86.44
77149;BME280;66122;47.130;16.844;2023-10-19T15:45:59;97962.59;;;19.00;87.42
77149;BME280;66122;47.130;16.844;2023-10-19T15:56:10;97941.81;;;18.48;91.55
77149;BME280;66122;47.130;16.844;2023-10-19T16:06:21;97925.28;;;18.06;94.23
77149;BME280;66122;47.130;16.844;2023-10-19T16:16:24;97920.88;;;17.74;96.57
77149;BME280;66122;47.130;16.844;2023-10-19T16:26:27;97922.78;;;17.41;98.99
77149;BME280;66122;47.130;16.844;2023-10-19T16:36:29;97943.84;;;17.52;98.79
77149;BME280;66122;47.130;16.844;2023-10-19T16:46:32;97918.81;;;17.21;100.00
77149;BME280;66122;47.130;16.844;2023-10-19T16:56:36;97927.91;;;17.58;99.73
77149;BME280;66122;47.130;16.844;2023-10-19T17:06:42;97904.00;;;17.57;99.71
77149;BME280;66122;47.130;16.844;2023-10-19T17:16:46;97904.06;;;17.41;100.00
77149;BME280;66122;47.130;16.844;2023-10-19T17:26:49;97904.75;;;17.35;100.00
77149;BME280;66122;47.130;16.844;2023-10-19T17:36:52;97905.63;;;17.74;100.00
77149;BME280;66122;47.130;16.844;2023-10-19T17:46:56;97872.69;;;17.66;100.00
77149;BME280;66122;47.130;16.844;2023-10-19T17:56:59;97879.69;;;17.75;100.00
77149;BME280;66122;47.130;16.844;2023-10-19T18:07:03;97876.09;;;17.90;100.00
77149;BME280;66122;47.130;16.844;2023-10-19T18:17:06;97853.97;;;17.88;100.00
77149;BME280;66122;47.130;16.844;2023-10-19T18:27:12;97847.88;;;18.03;99.91
77149;BME280;66122;47.130;16.844;2023-10-19T18:37:15;97862.91;;;18.12;99.24
77149;BME280;66122;47.130;16.844;2023-10-19T18:47:18;97848.53;;;18.05;98.99
77149;BME280;66122;47.130;16.844;2023-10-19T18:57:21;97865.69;;;18.49;97.31
77149;BME280;66122;47.130;16.844;2023-10-19T19:07:23;97847.88;;;18.56;96.97
77149;BME280;66122;47.130;16.844;2023-10-19T19:17:27;97871.81;;;18.35;98.98
77149;BME280;66122;47.130;16.844;2023-10-19T19:27:30;97849.53;;;18.04;99.93
77149;BME280;66122;47.130;16.844;2023-10-19T19:37:32;97866.53;;;18.19;99.55
77149;BME280;66122;47.130;16.844;2023-10-19T19:47:39;97851.81;;;17.92;100.00
77149;BME280;66122;47.130;16.844;2023-10-19T19:57:42;97850.47;;;18.19;98.88
77149;BME280;66122;47.130;16.844;2023-10-19T20:07:45;97847.13;;;18.17;99.14
77149;BME280;66122;47.130;16.844;2023-10-19T20:17:48;97863.13;;;18.56;96.85
77149;BME280;66122;47.130;16.844;2023-10-19T20:27:51;97864.06;;;18.86;95.69
77149;BME280;66122;47.130;16.844;2023-10-19T20:37:53;97852.22;;;18.95;94.80
77149;BME280;66122;47.130;16.844;2023-10-19T20:47:56;97850.75;;;18.47;98.51
77149;BME280;66122;47.130;16.844;2023-10-19T20:57:59;97856.78;;;18.26;99.79
77149;BME280;66122;47.130;16.844;2023-10-19T21:08:02;97817.03;;;18.07;100.00
77149;BME280;66122;47.130;16.844;2023-10-19T21:18:04;97776.72;;;17.69;100.00
77149;BME280;66122;47.130;16.844;2023-10-19T21:28:09;97777.38;;;17.71;100.00
77149;BME280;66122;47.130;16.844;2023-10-19T21:38:13;97768.41;;;18.10;100.00
77149;BME280;66122;47.130;16.844;2023-10-19T21:48:16;97726.78;;;17.37;100.00
77149;BME280;66122;47.130;16.844;2023-10-19T21:58:19;97754.19;;;17.86;100.00
77149;BME280;66122;47.130;16.844;2023-10-19T22:08:23;97734.16;;;18.20;100.00
77149;BME280;66122;47.130;16.844;2023-10-19T22:18:26;97719.41;;;18.16;100.00
77149;BME280;66122;47.130;16.844;2023-10-19T22:28:30;97718.00;;;18.28;100.00
77149;BME280;66122;47.130;16.844;2023-10-19T22:38:32;97677.44;;;18.08;100.00
77149;BME280;66122;47.130;16.844;2023-10-19T22:48:37;97661.69;;;18.43;100.00
77149;BME280;66122;47.130;16.844;2023-10-19T22:58:40;97704.47;;;18.21;100.00
77149;BME280;66122;47.130;16.844;2023-10-19T23:08:42;97725.72;;;18.23;100.00
77149;BME280;66122;47.130;16.844;2023-10-19T23:18:45;97704.38;;;18.15;100.00
77149;BME280;66122;47.130;16.844;2023-10-19T23:28:50;97687.88;;;17.80;100.00
77149;BME280;66122;47.130;16.844;2023-10-19T23:38:56;97713.22;;;18.01;100.00
77149;BME280;66122;47.130;16.844;2023-10-19T23:48:59;97685.19;;;18.03;100.00
77149;BME280;66122;47.130;16.844;2023-10-19T23:59:03;97699.53;;;17.87;100.00
